createdAt,value
2022-11-28T00:01:43.208Z,5.32
2022-11-28T00:04:12.619Z,5.32
2022-11-28T00:06:49.083Z,5.31
2022-11-28T00:09:20.130Z,5.30
2022-11-28T00:11:49.153Z,5.29
2022-11-28T00:14:19.492Z,5.28
2022-11-28T00:16:47.946Z,5.28
2022-11-28T00:19:16.230Z,5.28
2022-11-28T00:21:44.753Z,5.30
2022-11-28T00:24:13.090Z,5.30
2022-11-28T00:26:42.288Z,5.29
2022-11-28T00:29:12.033Z,5.28
2022-11-28T00:31:44.764Z,5.27
2022-11-28T00:34:14.889Z,5.31
2022-11-28T00:36:45.634Z,5.32
2022-11-28T00:39:15.282Z,5.32
2022-11-28T00:41:44.521Z,5.32
2022-11-28T00:44:14.000Z,5.31
2022-11-28T00:46:42.926Z,5.31
2022-11-28T00:49:11.376Z,5.32
2022-11-28T00:51:39.752Z,5.33
2022-11-28T00:54:08.256Z,5.33
2022-11-28T00:56:39.322Z,5.33
2022-11-28T00:59:08.512Z,5.34
2022-11-28T01:01:40.173Z,5.34
2022-11-28T01:04:11.657Z,5.35
2022-11-28T01:06:45.921Z,5.34
2022-11-28T01:09:21.119Z,5.35
2022-11-28T01:11:51.711Z,5.36
2022-11-28T01:14:22.639Z,5.36
2022-11-28T01:16:51.585Z,5.36
2022-11-28T01:19:21.285Z,5.37
2022-11-28T01:21:49.995Z,5.39
2022-11-28T01:24:18.490Z,5.39
2022-11-28T01:26:46.829Z,5.39
2022-11-28T01:29:16.403Z,5.39
2022-11-28T01:31:44.950Z,5.39
2022-11-28T01:34:13.303Z,5.40
2022-11-28T01:36:41.541Z,5.40
2022-11-28T01:39:10.987Z,5.40
2022-11-28T01:41:40.479Z,5.41
2022-11-28T01:44:29.414Z,5.42
2022-11-28T01:46:57.826Z,5.43
2022-11-28T01:49:31.610Z,5.42
2022-11-28T01:52:05.139Z,5.41
2022-11-28T01:54:35.882Z,5.42
2022-11-28T01:57:09.296Z,5.40
2022-11-28T01:59:42.341Z,5.41
2022-11-28T02:02:25.455Z,5.42
2022-11-28T02:04:53.863Z,5.40
2022-11-28T02:07:22.322Z,5.41
2022-11-28T02:09:52.791Z,5.41
2022-11-28T02:12:58.033Z,5.43
2022-11-28T02:15:51.158Z,5.42
2022-11-28T02:18:50.418Z,5.43
2022-11-28T02:21:56.665Z,5.44
2022-11-28T02:24:34.095Z,5.44
2022-11-28T02:27:21.594Z,5.45
2022-11-28T02:30:08.324Z,5.44
2022-11-28T02:33:14.121Z,5.44
2022-11-28T02:35:59.183Z,5.45
2022-11-28T02:38:56.266Z,5.45
2022-11-28T02:41:34.331Z,5.46
2022-11-28T02:44:08.655Z,5.45
2022-11-28T02:46:49.708Z,5.45
2022-11-28T02:49:28.543Z,5.44
2022-11-28T02:52:32.982Z,5.42
2022-11-28T02:55:02.649Z,5.42
2022-11-28T02:57:47.960Z,5.42
2022-11-28T03:00:27.993Z,5.41
2022-11-28T03:03:27.285Z,5.41
2022-11-28T03:06:26.311Z,5.42
2022-11-28T03:09:07.010Z,5.42
2022-11-28T03:12:07.340Z,5.40
2022-11-28T03:14:54.323Z,5.39
2022-11-28T03:17:37.508Z,5.39
2022-11-28T03:20:22.869Z,5.40
2022-11-28T03:23:06.182Z,5.41
2022-11-28T03:25:42.054Z,5.40
2022-11-28T03:28:37.035Z,5.42
2022-11-28T03:31:18.532Z,5.42
2022-11-28T03:33:59.594Z,5.42
2022-11-28T03:36:36.194Z,5.41
2022-11-28T03:39:13.923Z,5.42
2022-11-28T03:41:57.282Z,5.43
2022-11-28T03:44:29.284Z,5.45
2022-11-28T03:47:00.879Z,5.45
2022-11-28T03:49:42.757Z,5.45
2022-11-28T03:52:29.030Z,5.46
2022-11-28T03:55:03.224Z,5.47
2022-11-28T03:58:00.870Z,5.47
2022-11-28T04:00:30.177Z,5.49
2022-11-28T04:03:26.632Z,5.51
2022-11-28T04:06:17.525Z,5.51
2022-11-28T04:08:58.402Z,5.53
2022-11-28T04:11:31.122Z,5.54
2022-11-28T04:14:12.695Z,5.54
2022-11-28T04:16:53.817Z,5.55
2022-11-28T04:19:31.100Z,5.58
2022-11-28T04:22:21.686Z,5.59
2022-11-28T04:25:00.420Z,5.62
2022-11-28T04:27:35.168Z,5.63
2022-11-28T04:30:05.387Z,5.65
2022-11-28T04:32:39.328Z,5.65
2022-11-28T04:35:16.404Z,5.68
2022-11-28T04:37:48.770Z,5.70
2022-11-28T04:40:19.249Z,5.71
2022-11-28T04:43:01.480Z,5.72
2022-11-28T04:45:32.865Z,5.72
2022-11-28T04:48:02.060Z,5.73
2022-11-28T04:50:41.179Z,5.74
2022-11-28T04:53:47.101Z,5.75
2022-11-28T04:56:28.328Z,5.76
2022-11-28T04:58:58.465Z,5.77
2022-11-28T05:01:30.192Z,5.77
2022-11-28T05:03:58.739Z,5.79
2022-11-28T05:06:30.608Z,5.79
2022-11-28T05:08:59.534Z,5.81
2022-11-28T05:11:28.512Z,5.82
2022-11-28T05:13:56.834Z,5.84
2022-11-28T05:16:25.196Z,5.85
2022-11-28T05:18:53.618Z,5.86
2022-11-28T05:21:21.939Z,5.89
2022-11-28T05:23:50.202Z,5.91
2022-11-28T05:26:20.960Z,5.92
2022-11-28T05:28:51.218Z,5.94
2022-11-28T05:31:21.261Z,5.94
2022-11-28T05:33:49.725Z,5.95
2022-11-28T05:36:18.483Z,5.96
2022-11-28T05:38:47.233Z,5.97
2022-11-28T05:41:29.556Z,5.98
2022-11-28T05:43:59.143Z,5.99
2022-11-28T05:46:28.764Z,6.00
2022-11-28T05:48:57.931Z,6.01
2022-11-28T05:51:26.253Z,6.02
2022-11-28T05:53:54.494Z,6.04
2022-11-28T05:56:23.628Z,6.05
2022-11-28T05:58:53.926Z,6.06
2022-11-28T06:01:25.675Z,6.07
2022-11-28T06:04:00.077Z,6.08
2022-11-28T06:06:31.140Z,6.08
2022-11-28T06:09:00.269Z,6.10
2022-11-28T06:11:31.045Z,6.11
2022-11-28T06:13:59.363Z,6.11
2022-11-28T06:16:30.567Z,6.11
2022-11-28T06:19:04.391Z,6.13
2022-11-28T06:21:33.481Z,6.13
2022-11-28T06:24:02.215Z,6.15
2022-11-28T06:26:33.179Z,6.16
2022-11-28T06:29:04.219Z,6.16
2022-11-28T06:31:36.301Z,6.17
2022-11-28T06:34:04.876Z,6.18
2022-11-28T06:36:38.545Z,6.20
2022-11-28T06:39:07.116Z,6.21
2022-11-28T06:41:35.520Z,6.23
2022-11-28T06:44:03.972Z,6.25
2022-11-28T06:46:32.374Z,6.26
2022-11-28T06:49:00.707Z,6.28
2022-11-28T06:51:29.571Z,6.29
2022-11-28T06:53:58.678Z,6.30
2022-11-28T06:56:27.203Z,6.32
2022-11-28T06:58:57.538Z,6.34
2022-11-28T07:01:28.736Z,6.37
2022-11-28T07:03:57.529Z,6.37
2022-11-28T07:06:27.577Z,6.39
2022-11-28T07:08:57.798Z,6.41
2022-11-28T07:11:29.283Z,6.41
2022-11-28T07:13:58.936Z,6.42
2022-11-28T07:16:29.976Z,6.44
2022-11-28T07:18:59.294Z,6.44
2022-11-28T07:21:28.442Z,6.46
2022-11-28T07:23:59.009Z,6.48
2022-11-28T07:26:27.455Z,6.50
2022-11-28T07:28:58.269Z,6.50
2022-11-28T07:31:31.652Z,6.51
2022-11-28T07:34:03.165Z,6.52
2022-11-28T07:36:31.866Z,6.53
2022-11-28T07:39:01.718Z,6.54
2022-11-28T07:41:30.190Z,6.55
2022-11-28T07:44:00.507Z,6.56
2022-11-28T07:46:31.126Z,6.56
2022-11-28T07:49:00.001Z,6.57
2022-11-28T07:51:31.211Z,6.57
2022-11-28T07:54:02.619Z,6.57
2022-11-28T07:56:57.073Z,6.59
2022-11-28T07:59:21.984Z,6.59
2022-11-28T08:01:50.356Z,6.60
2022-11-28T08:04:18.757Z,6.61
2022-11-28T08:06:47.163Z,6.62
2022-11-28T08:09:15.467Z,6.62
2022-11-28T08:11:43.850Z,6.62
2022-11-28T08:14:12.489Z,6.62
2022-11-28T08:16:44.983Z,6.63
2022-11-28T08:19:13.943Z,6.64
2022-11-28T08:21:42.985Z,6.64
2022-11-28T08:24:11.985Z,6.65
2022-11-28T08:26:40.476Z,6.66
2022-11-28T08:29:10.039Z,6.67
2022-11-28T08:31:39.915Z,6.68
2022-11-28T08:34:10.144Z,6.68
2022-11-28T08:36:38.688Z,6.68
2022-11-28T08:39:24.361Z,6.69
2022-11-28T08:41:57.295Z,6.69
2022-11-28T08:44:30.177Z,6.69
2022-11-28T08:46:58.977Z,6.69
2022-11-28T08:49:27.378Z,6.70
2022-11-28T08:51:55.756Z,6.70
2022-11-28T08:54:24.923Z,6.71
2022-11-28T08:56:53.199Z,6.71
2022-11-28T08:59:21.549Z,6.72
2022-11-28T09:01:52.791Z,6.73
2022-11-28T09:04:21.986Z,6.73
2022-11-28T09:06:51.075Z,6.75
2022-11-28T09:09:19.706Z,6.77
2022-11-28T09:11:48.163Z,6.77
2022-11-28T09:14:16.442Z,6.78
2022-11-28T09:16:44.936Z,6.79
2022-11-28T09:19:13.380Z,6.80
2022-11-28T09:21:42.312Z,6.81
2022-11-28T09:24:11.733Z,6.82
2022-11-28T09:26:40.444Z,6.83
2022-11-28T09:29:08.770Z,6.84
2022-11-28T09:31:37.025Z,6.85
2022-11-28T09:34:05.472Z,6.86
2022-11-28T09:36:34.033Z,6.87
2022-11-28T09:39:03.089Z,6.87
2022-11-28T09:41:49.533Z,6.88
2022-11-28T09:44:26.887Z,6.88
2022-11-28T09:47:00.349Z,6.89
2022-11-28T09:49:45.355Z,6.89
2022-11-28T09:52:29.397Z,6.90
2022-11-28T09:55:07.341Z,6.92
2022-11-28T09:57:47.257Z,6.92
2022-11-28T10:00:33.350Z,6.95
2022-11-28T10:03:10.430Z,6.95
2022-11-28T10:06:16.457Z,6.96
2022-11-28T10:08:54.900Z,6.96
2022-11-28T10:11:32.169Z,6.97
2022-11-28T10:14:22.297Z,6.99
2022-11-28T10:17:14.676Z,6.99
2022-11-28T10:19:56.708Z,7.00
2022-11-28T10:22:45.642Z,7.01
2022-11-28T10:25:22.787Z,7.03
2022-11-28T10:27:51.409Z,7.02
2022-11-28T10:30:24.029Z,7.04
2022-11-28T10:33:02.856Z,7.05
2022-11-28T10:35:38.967Z,7.05
2022-11-28T10:38:16.245Z,7.05
2022-11-28T10:41:12.549Z,7.06
2022-11-28T10:44:14.757Z,7.05
2022-11-28T10:47:08.162Z,7.06
2022-11-28T10:49:45.735Z,7.07
2022-11-28T10:52:26.428Z,7.08
2022-11-28T10:55:29.361Z,7.08
2022-11-28T10:58:23.860Z,7.08
2022-11-28T11:00:55.095Z,7.09
2022-11-28T11:03:32.780Z,7.09
2022-11-28T11:06:01.757Z,7.09
2022-11-28T11:08:34.895Z,7.09
2022-11-28T11:11:32.590Z,7.10
2022-11-28T11:14:02.365Z,7.11
2022-11-28T11:16:55.558Z,7.12
2022-11-28T11:19:40.225Z,7.13
2022-11-28T11:22:19.596Z,7.11
2022-11-28T11:25:20.299Z,7.14
2022-11-28T11:27:54.855Z,7.15
2022-11-28T11:30:38.676Z,7.16
2022-11-28T11:33:15.582Z,7.17
2022-11-28T11:35:48.458Z,7.17
2022-11-28T11:38:23.336Z,7.18
2022-11-28T11:40:52.485Z,7.18
2022-11-28T11:43:32.468Z,7.19
2022-11-28T11:46:05.747Z,7.20
2022-11-28T11:48:39.960Z,7.21
2022-11-28T11:51:25.511Z,7.22
2022-11-28T11:54:16.626Z,7.23
2022-11-28T11:56:56.596Z,7.25
2022-11-28T11:59:43.195Z,7.25
2022-11-28T12:02:31.451Z,7.25
2022-11-28T12:05:05.507Z,7.25
2022-11-28T12:07:40.430Z,7.25
2022-11-28T12:10:16.462Z,7.25
2022-11-28T12:12:45.045Z,7.26
2022-11-28T12:15:35.273Z,7.27
2022-11-28T12:18:03.590Z,7.28
2022-11-28T12:20:44.658Z,7.29
2022-11-28T12:23:18.763Z,7.29
2022-11-28T12:25:56.038Z,7.30
2022-11-28T12:28:42.472Z,7.32
2022-11-28T12:31:32.479Z,7.33
2022-11-28T12:34:24.931Z,7.33
2022-11-28T12:37:14.429Z,7.34
2022-11-28T12:40:07.489Z,7.35
2022-11-28T12:42:53.803Z,7.35
2022-11-28T12:45:36.694Z,7.35
2022-11-28T12:48:32.657Z,7.36
2022-11-28T12:51:46.997Z,7.36
2022-11-28T12:54:27.688Z,7.37
2022-11-28T12:57:27.180Z,7.37
2022-11-28T13:00:09.194Z,7.39
2022-11-28T13:02:56.314Z,7.39
2022-11-28T13:05:36.210Z,7.39
2022-11-28T13:08:33.710Z,7.40
2022-11-28T13:11:04.908Z,7.42
2022-11-28T13:13:58.421Z,7.42
2022-11-28T13:16:46.411Z,7.42
2022-11-28T13:19:34.481Z,7.42
2022-11-28T13:22:02.735Z,7.42
2022-11-28T13:24:45.077Z,7.40
2022-11-28T13:27:36.330Z,7.43
2022-11-28T13:30:22.606Z,7.43
2022-11-28T13:32:53.636Z,7.44
2022-11-28T13:35:23.283Z,7.45
2022-11-28T13:41:01.570Z,7.45
2022-11-28T13:44:08.370Z,7.45
2022-11-28T13:46:36.804Z,7.46
2022-11-28T13:49:21.194Z,7.47
2022-11-28T13:52:18.625Z,7.47
2022-11-28T13:54:54.495Z,7.47
2022-11-28T13:57:39.840Z,7.48
2022-11-28T14:00:19.115Z,7.48
2022-11-28T14:02:56.572Z,7.48
2022-11-28T14:05:30.970Z,7.48
2022-11-28T14:08:00.307Z,7.49
2022-11-28T14:10:32.062Z,7.48
2022-11-28T14:13:41.286Z,7.48
2022-11-28T14:16:21.155Z,7.49
2022-11-28T14:19:14.081Z,7.50
2022-11-28T14:22:06.455Z,7.50
2022-11-28T14:25:22.388Z,7.50
2022-11-28T14:27:57.505Z,7.49
2022-11-28T14:30:37.091Z,7.48
2022-11-28T14:33:26.214Z,7.50
2022-11-28T14:35:54.614Z,7.49
2022-11-28T14:38:30.166Z,7.48
2022-11-28T14:41:03.459Z,7.48
2022-11-28T14:43:34.949Z,7.47
2022-11-28T14:46:19.414Z,7.47
2022-11-28T14:49:17.045Z,7.46
2022-11-28T14:51:48.295Z,7.46
2022-11-28T14:54:54.977Z,7.45
2022-11-28T14:57:32.862Z,7.44
2022-11-28T15:00:08.427Z,7.44
2022-11-28T15:02:46.445Z,7.43
2022-11-28T15:05:29.050Z,7.43
2022-11-28T15:08:19.637Z,7.41
2022-11-28T15:10:58.059Z,7.40
2022-11-28T15:14:04.411Z,7.40
2022-11-28T15:16:39.497Z,7.40
2022-11-28T15:19:24.362Z,7.41
2022-11-28T15:21:54.413Z,7.40
2022-11-28T15:24:23.985Z,7.40
2022-11-28T15:26:57.591Z,7.40
2022-11-28T15:29:28.307Z,7.40
2022-11-28T15:31:58.015Z,7.40
2022-11-28T15:34:35.606Z,7.39
2022-11-28T15:37:10.181Z,7.39
2022-11-28T15:39:41.291Z,7.39
2022-11-28T15:42:31.626Z,7.38
2022-11-28T15:45:37.872Z,7.37
2022-11-28T15:48:28.088Z,7.36
2022-11-28T15:50:56.912Z,7.37
2022-11-28T15:53:25.494Z,7.36
2022-11-28T15:56:15.037Z,7.37
2022-11-28T15:58:45.089Z,7.36
2022-11-28T16:01:27.097Z,7.36
2022-11-28T16:04:26.611Z,7.36
2022-11-28T16:06:57.635Z,7.35
2022-11-28T16:09:35.092Z,7.35
2022-11-28T16:12:05.331Z,7.35
2022-11-28T16:14:38.711Z,7.35
2022-11-28T16:17:26.115Z,7.36
2022-11-28T16:19:56.059Z,7.36
2022-11-28T16:22:33.240Z,7.36
2022-11-28T16:25:14.595Z,7.37
2022-11-28T16:27:45.683Z,7.38
2022-11-28T16:30:23.542Z,7.37
2022-11-28T16:32:55.526Z,7.36
2022-11-28T16:35:41.641Z,7.38
2022-11-28T16:38:24.005Z,7.37
2022-11-28T16:40:59.783Z,7.37
2022-11-28T16:43:39.498Z,7.36
2022-11-28T16:46:19.159Z,7.37
2022-11-28T16:48:52.643Z,7.37
2022-11-28T16:51:20.961Z,7.38
2022-11-28T16:54:00.661Z,7.39
2022-11-28T16:56:29.310Z,7.39
2022-11-28T16:59:11.360Z,7.40
2022-11-28T17:01:42.090Z,7.39
2022-11-28T17:04:21.494Z,7.41
2022-11-28T17:06:51.521Z,7.39
2022-11-28T17:09:20.352Z,7.39
2022-11-28T17:11:59.492Z,7.39
2022-11-28T17:14:27.735Z,7.39
2022-11-28T17:16:56.325Z,7.40
2022-11-28T17:19:24.771Z,7.39
2022-11-28T17:21:56.748Z,7.40
2022-11-28T17:24:27.866Z,7.41
2022-11-28T17:26:56.193Z,7.41
2022-11-28T17:29:28.602Z,7.41
2022-11-28T17:31:58.909Z,7.41
2022-11-28T17:34:31.278Z,7.42
2022-11-28T17:37:01.705Z,7.44
2022-11-28T17:39:30.374Z,7.44
2022-11-28T17:41:59.159Z,7.44
2022-11-28T17:44:33.092Z,7.45
2022-11-28T17:47:02.952Z,7.44
2022-11-28T17:49:31.369Z,7.45
2022-11-28T17:52:00.196Z,7.44
2022-11-28T17:54:28.650Z,7.45
2022-11-28T17:56:57.653Z,7.46
2022-11-28T17:59:27.055Z,7.46
2022-11-28T18:01:55.646Z,7.47
2022-11-28T18:04:26.276Z,7.46
2022-11-28T18:06:55.739Z,7.46
2022-11-28T18:09:24.193Z,7.47
2022-11-28T18:11:52.878Z,7.46
2022-11-28T18:14:21.260Z,7.46
2022-11-28T18:16:49.845Z,7.46
2022-11-28T18:19:18.300Z,7.47
2022-11-28T18:21:46.739Z,7.47
2022-11-28T18:24:15.818Z,7.46
2022-11-28T18:26:44.177Z,7.47
2022-11-28T18:29:13.040Z,7.48
2022-11-28T18:31:42.565Z,7.47
2022-11-28T18:34:12.014Z,7.48
2022-11-28T18:36:41.222Z,7.48
2022-11-28T18:39:15.526Z,7.48
2022-11-28T18:41:44.194Z,7.49
2022-11-28T18:44:12.628Z,7.49
2022-11-28T18:46:41.347Z,7.49
2022-11-28T18:49:12.435Z,7.50
2022-11-28T18:51:40.863Z,7.49
2022-11-28T18:54:10.382Z,7.49
2022-11-28T18:56:39.254Z,7.49
2022-11-28T18:59:07.659Z,7.48
2022-11-28T19:01:41.325Z,7.48
2022-11-28T19:04:12.275Z,7.49
2022-11-28T19:06:42.938Z,7.49
2022-11-28T19:09:12.884Z,7.48
2022-11-28T19:11:46.138Z,7.48
2022-11-28T19:14:23.041Z,7.49
2022-11-28T19:16:53.919Z,7.49
2022-11-28T19:19:23.985Z,7.48
2022-11-28T19:21:52.829Z,7.49
2022-11-28T19:24:21.462Z,7.50
2022-11-28T19:26:51.408Z,7.49
2022-11-28T19:29:19.877Z,7.50
2022-11-28T19:31:49.636Z,7.50
2022-11-28T19:34:18.742Z,7.50
2022-11-28T19:36:50.125Z,7.50
2022-11-28T19:39:24.652Z,7.51
2022-11-28T19:41:53.863Z,7.52
2022-11-28T19:44:24.665Z,7.50
2022-11-28T19:46:54.622Z,7.51
2022-11-28T19:49:24.455Z,7.51
2022-11-28T19:51:54.586Z,7.52
2022-11-28T19:54:24.736Z,7.51
2022-11-28T19:56:56.134Z,7.51
2022-11-28T19:59:25.407Z,7.50
2022-11-28T20:01:54.002Z,7.51
2022-11-28T20:04:24.582Z,7.51
2022-11-28T20:06:56.295Z,7.51
2022-11-28T20:09:24.886Z,7.53
2022-11-28T20:11:53.538Z,7.52
2022-11-28T20:14:25.172Z,7.52
2022-11-28T20:16:56.868Z,7.52
2022-11-28T20:19:25.537Z,7.53
2022-11-28T20:21:58.650Z,7.52
2022-11-28T20:24:27.511Z,7.53
2022-11-28T20:26:56.985Z,7.53
2022-11-28T20:29:28.016Z,7.54
2022-11-28T20:31:57.529Z,7.53
2022-11-28T20:34:27.773Z,7.54
2022-11-28T20:36:59.420Z,7.55
2022-11-28T20:39:27.941Z,7.55
2022-11-28T20:41:56.466Z,7.56
2022-11-28T20:44:27.286Z,7.56
2022-11-28T20:46:55.647Z,7.56
2022-11-28T20:49:23.912Z,7.55
2022-11-28T20:51:55.131Z,7.57
2022-11-28T20:54:25.595Z,7.57
2022-11-28T20:59:45.528Z,7.57
2022-11-28T21:02:14.292Z,7.58
2022-11-28T21:04:42.673Z,7.60
2022-11-28T21:07:11.003Z,7.59
2022-11-28T21:09:39.395Z,7.60
2022-11-28T21:12:08.050Z,7.61
2022-11-28T21:14:36.397Z,7.63
2022-11-28T21:17:04.860Z,7.64
2022-11-28T21:19:33.356Z,7.63
2022-11-28T21:22:01.766Z,7.65
2022-11-28T21:24:30.141Z,7.66
2022-11-28T21:26:58.647Z,7.67
2022-11-28T21:29:26.971Z,7.68
2022-11-28T21:31:55.464Z,7.67
2022-11-28T21:34:24.005Z,7.68
2022-11-28T21:36:54.112Z,7.68
2022-11-28T21:39:23.090Z,7.69
2022-11-28T21:41:51.412Z,7.69
2022-11-28T21:44:20.598Z,7.69
2022-11-28T21:46:50.326Z,7.67
2022-11-28T21:49:18.989Z,7.66
2022-11-28T21:51:47.497Z,7.64
2022-11-28T21:54:15.789Z,7.65
2022-11-28T21:56:46.881Z,7.65
2022-11-28T21:59:15.380Z,7.64
2022-11-28T22:01:44.423Z,7.64
2022-11-28T22:04:13.300Z,7.64
2022-11-28T22:06:41.711Z,7.65
2022-11-28T22:09:10.641Z,7.66
2022-11-28T22:11:40.480Z,7.67
2022-11-28T22:14:11.502Z,7.67
2022-11-28T22:16:39.885Z,7.67
2022-11-28T22:19:09.299Z,7.68
2022-11-28T22:21:56.038Z,7.67
2022-11-28T22:24:25.058Z,7.67
2022-11-28T22:26:55.392Z,7.67
2022-11-28T22:29:25.240Z,7.68
2022-11-28T22:31:55.052Z,7.68
2022-11-28T22:34:24.746Z,7.68
2022-11-28T22:36:53.134Z,7.68
2022-11-28T22:39:22.348Z,7.69
2022-11-28T22:41:50.758Z,7.67
2022-11-28T22:44:21.438Z,7.67
2022-11-28T22:46:50.145Z,7.67
2022-11-28T22:49:19.533Z,7.67
2022-11-28T22:51:48.760Z,7.66
2022-11-28T22:54:17.432Z,7.65
2022-11-28T22:56:45.790Z,7.64
2022-11-28T22:59:19.510Z,7.64
2022-11-28T23:01:49.443Z,7.64
2022-11-28T23:04:18.183Z,7.64
2022-11-28T23:06:47.376Z,7.63
2022-11-28T23:09:15.797Z,7.62
2022-11-28T23:11:46.065Z,7.61
2022-11-28T23:14:18.096Z,7.59
2022-11-28T23:16:47.615Z,7.58
2022-11-28T23:19:21.658Z,7.57
2022-11-28T23:21:50.670Z,7.56
2022-11-28T23:24:22.373Z,7.54
2022-11-28T23:26:52.459Z,7.53
2022-11-28T23:29:21.020Z,7.52
2022-11-28T23:31:50.599Z,7.50
2022-11-28T23:34:19.077Z,7.50
2022-11-28T23:36:48.933Z,7.48
2022-11-28T23:39:20.512Z,7.48
2022-11-28T23:41:50.068Z,7.46
2022-11-28T23:44:19.909Z,7.47
2022-11-28T23:46:48.504Z,7.45
2022-11-28T23:49:17.446Z,7.44
2022-11-28T23:51:45.850Z,7.44
2022-11-28T23:54:14.685Z,7.44
2022-11-28T23:56:43.546Z,7.42
2022-11-28T23:59:12.693Z,7.42
